createdAt,value
2023-04-21T00:00:10.413Z,11.80
2023-04-21T00:02:41.511Z,11.80
2023-04-21T00:05:11.086Z,11.80
2023-04-21T00:07:39.495Z,11.70
2023-04-21T00:10:11.567Z,11.70
2023-04-21T00:12:39.041Z,11.60
2023-04-21T00:15:07.366Z,11.60
2023-04-21T00:17:34.615Z,11.60
2023-04-21T00:20:01.911Z,11.50
2023-04-21T00:22:29.158Z,11.50
2023-04-21T00:24:56.351Z,11.50
2023-04-21T00:27:23.580Z,11.50
2023-04-21T00:29:50.740Z,11.50
2023-04-21T00:32:17.958Z,11.50
2023-04-21T00:34:45.657Z,11.50
2023-04-21T00:37:12.877Z,11.60
2023-04-21T00:39:40.406Z,11.60
2023-04-21T00:42:07.676Z,11.70
2023-04-21T00:44:34.918Z,11.80
2023-04-21T00:47:02.254Z,11.90
2023-04-21T00:49:29.804Z,12.00
2023-04-21T00:51:57.056Z,12.10
2023-04-21T00:54:26.173Z,12.20
2023-04-21T00:56:55.346Z,12.30
2023-04-21T00:59:22.522Z,12.30
2023-04-21T01:01:50.118Z,12.40
2023-04-21T01:04:17.394Z,12.40
2023-04-21T01:06:45.590Z,12.50
2023-04-21T01:09:13.464Z,12.50
2023-04-21T01:11:40.999Z,12.50
2023-04-21T01:14:08.395Z,12.50
2023-04-21T01:16:36.888Z,12.50
2023-04-21T01:19:05.737Z,12.50
2023-04-21T01:21:43.059Z,12.50
2023-04-21T01:24:11.736Z,12.60
2023-04-21T01:26:39.386Z,12.50
2023-04-21T01:29:06.948Z,12.50
2023-04-21T01:31:34.230Z,12.60
2023-04-21T01:34:05.157Z,12.50
2023-04-21T01:36:32.743Z,12.50
2023-04-21T01:39:00.020Z,12.50
2023-04-21T01:41:27.354Z,12.50
2023-04-21T01:43:54.540Z,12.50
2023-04-21T01:46:21.984Z,12.40
2023-04-21T01:48:49.329Z,12.40
2023-04-21T01:51:16.506Z,12.40
2023-04-21T01:53:43.683Z,12.40
2023-04-21T01:56:15.283Z,12.40
2023-04-21T01:58:42.473Z,12.50
2023-04-21T02:01:09.739Z,12.50
2023-04-21T02:03:37.283Z,12.50
2023-04-21T02:06:04.981Z,12.50
2023-04-21T02:08:32.125Z,12.60
2023-04-21T02:11:02.295Z,12.50
2023-04-21T02:13:29.472Z,12.60
2023-04-21T02:16:09.635Z,12.60
2023-04-21T02:18:40.069Z,12.60
2023-04-21T02:21:07.492Z,12.60
2023-04-21T02:23:34.708Z,12.60
2023-04-21T02:26:01.912Z,12.60
2023-04-21T02:28:29.254Z,12.60
2023-04-21T02:30:56.601Z,12.50
2023-04-21T02:33:23.975Z,12.60
2023-04-21T02:35:51.284Z,12.50
2023-04-21T02:38:18.540Z,12.60
2023-04-21T02:40:45.836Z,12.60
2023-04-21T02:43:14.751Z,12.50
2023-04-21T02:45:42.033Z,12.60
2023-04-21T02:48:09.799Z,12.60
2023-04-21T02:50:37.112Z,12.60
2023-04-21T02:53:04.552Z,12.60
2023-04-21T02:55:32.148Z,12.60
2023-04-21T02:57:59.339Z,12.60
2023-04-21T03:00:26.905Z,12.50
2023-04-21T03:02:54.324Z,12.50
2023-04-21T03:05:21.798Z,12.50
2023-04-21T03:07:49.031Z,12.50
2023-04-21T03:10:16.403Z,12.50
2023-04-21T03:12:43.615Z,12.40
2023-04-21T03:15:11.515Z,12.40
2023-04-21T03:17:39.044Z,12.30
2023-04-21T03:20:08.444Z,12.30
2023-04-21T03:22:36.309Z,12.20
2023-04-21T03:25:04.702Z,12.20
2023-04-21T03:27:32.310Z,12.10
2023-04-21T03:29:59.792Z,12.00
2023-04-21T03:32:27.045Z,11.90
2023-04-21T03:34:54.336Z,11.80
2023-04-21T03:37:21.850Z,11.80
2023-04-21T03:39:49.093Z,11.70
2023-04-21T03:42:16.595Z,11.70
2023-04-21T03:44:43.814Z,11.70
2023-04-21T03:47:11.005Z,11.70
2023-04-21T03:49:38.240Z,11.70
2023-04-21T03:52:05.646Z,11.60
2023-04-21T03:54:32.890Z,11.50
2023-04-21T03:57:00.218Z,11.50
2023-04-21T03:59:27.409Z,11.50
2023-04-21T04:01:54.615Z,11.50
2023-04-21T04:04:22.138Z,11.50
2023-04-21T04:06:49.440Z,11.50
2023-04-21T04:09:16.710Z,11.50
2023-04-21T04:11:44.032Z,11.50
2023-04-21T04:14:11.391Z,11.60
2023-04-21T04:16:38.734Z,11.60
2023-04-21T04:19:06.108Z,11.70
2023-04-21T04:21:33.806Z,11.70
2023-04-21T04:24:02.490Z,11.70
2023-04-21T04:26:29.955Z,11.70
2023-04-21T04:28:57.216Z,11.80
2023-04-21T04:31:25.488Z,11.80
2023-04-21T04:33:55.324Z,11.80
2023-04-21T04:36:24.475Z,11.80
2023-04-21T04:38:51.864Z,11.90
2023-04-21T04:41:21.142Z,12.00
2023-04-21T04:43:48.352Z,12.00
2023-04-21T04:46:15.573Z,12.10
2023-04-21T04:48:42.806Z,12.10
2023-04-21T04:51:10.055Z,12.10
2023-04-21T04:53:37.497Z,12.20
2023-04-21T04:56:04.910Z,12.20
2023-04-21T04:58:32.068Z,12.30
2023-04-21T05:00:59.234Z,12.30
2023-04-21T05:03:26.625Z,12.40
2023-04-21T05:05:54.421Z,12.50
2023-04-21T05:08:21.633Z,12.50
2023-04-21T05:10:48.876Z,12.60
2023-04-21T05:13:18.026Z,12.70
2023-04-21T05:15:45.254Z,12.80
2023-04-21T05:18:12.499Z,12.90
2023-04-21T05:20:42.732Z,13.00
2023-04-21T05:23:09.940Z,13.10
2023-04-21T05:25:38.698Z,13.10
2023-04-21T05:28:05.993Z,13.20
2023-04-21T05:30:33.213Z,13.30
2023-04-21T05:33:00.504Z,13.40
2023-04-21T05:35:30.926Z,13.40
2023-04-21T05:38:03.512Z,13.50
2023-04-21T05:40:30.731Z,13.60
2023-04-21T05:42:57.981Z,13.60
2023-04-21T05:45:25.227Z,13.70
2023-04-21T05:47:52.570Z,13.70
2023-04-21T05:50:20.105Z,13.80
2023-04-21T05:52:47.327Z,13.90
2023-04-21T05:55:14.550Z,13.90
2023-04-21T05:57:41.796Z,14.00
2023-04-21T06:00:09.979Z,14.00
2023-04-21T06:02:37.483Z,14.00
2023-04-21T06:05:05.563Z,14.20
2023-04-21T06:07:37.315Z,14.20
2023-04-21T06:10:05.275Z,14.30
2023-04-21T06:12:32.510Z,14.40
2023-04-21T06:14:59.919Z,14.40
2023-04-21T06:17:27.198Z,14.50
2023-04-21T06:19:56.112Z,14.60
2023-04-21T06:22:24.115Z,14.70
2023-04-21T06:24:51.895Z,14.70
2023-04-21T06:27:19.236Z,14.80
2023-04-21T06:29:46.416Z,14.90
2023-04-21T06:32:13.768Z,14.90
2023-04-21T06:34:41.069Z,15.00
2023-04-21T06:37:08.224Z,15.10
2023-04-21T06:39:35.542Z,15.20
2023-04-21T06:42:02.757Z,15.30
2023-04-21T06:44:32.619Z,15.30
2023-04-21T06:46:59.895Z,15.40
2023-04-21T06:49:27.209Z,15.50
2023-04-21T06:51:54.452Z,15.60
2023-04-21T06:54:21.644Z,15.70
2023-04-21T06:56:51.413Z,15.80
2023-04-21T06:59:18.877Z,15.80
2023-04-21T07:01:49.032Z,15.90
2023-04-21T07:04:16.376Z,16.00
2023-04-21T07:06:43.790Z,16.20
2023-04-21T07:09:11.163Z,16.40
2023-04-21T07:11:38.504Z,16.60
2023-04-21T07:14:06.686Z,16.90
2023-04-21T07:16:33.980Z,17.10
2023-04-21T07:19:01.806Z,17.40
2023-04-21T07:21:31.046Z,17.70
2023-04-21T07:23:59.039Z,17.90
2023-04-21T07:26:26.252Z,18.20
2023-04-21T07:28:53.999Z,18.40
2023-04-21T07:31:21.550Z,18.70
2023-04-21T07:33:48.804Z,18.80
2023-04-21T07:36:16.804Z,19.00
2023-04-21T07:38:44.604Z,19.10
2023-04-21T07:41:13.573Z,19.20
2023-04-21T07:43:41.273Z,19.20
2023-04-21T07:46:08.687Z,19.30
2023-04-21T07:48:35.893Z,19.30
2023-04-21T07:51:03.645Z,19.30
2023-04-21T07:53:31.201Z,19.20
2023-04-21T07:55:58.883Z,19.20
2023-04-21T07:58:26.137Z,19.20
2023-04-21T08:00:53.593Z,19.20
2023-04-21T08:03:23.815Z,19.20
2023-04-21T08:05:52.149Z,19.20
2023-04-21T08:08:20.541Z,19.20
2023-04-21T08:10:48.029Z,19.20
2023-04-21T08:13:15.360Z,19.30
2023-04-21T08:15:42.599Z,19.20
2023-04-21T08:18:09.870Z,19.20
2023-04-21T08:20:37.209Z,19.10
2023-04-21T08:23:04.564Z,19.10
2023-04-21T08:25:31.810Z,19.00
2023-04-21T08:27:58.986Z,18.90
2023-04-21T08:30:28.658Z,18.80
2023-04-21T08:32:56.088Z,18.70
2023-04-21T08:35:23.927Z,18.60
2023-04-21T08:37:52.225Z,18.50
2023-04-21T08:40:20.699Z,18.40
2023-04-21T08:42:49.106Z,18.50
2023-04-21T08:45:16.485Z,18.60
2023-04-21T08:47:43.821Z,18.60
2023-04-21T08:50:15.145Z,18.70
2023-04-21T08:52:42.395Z,18.70
2023-04-21T08:55:11.709Z,18.70
2023-04-21T08:57:38.916Z,18.80
2023-04-21T09:00:08.379Z,18.80
2023-04-21T09:03:02.158Z,18.80
2023-04-21T09:05:32.957Z,18.80
2023-04-21T09:08:11.848Z,18.70
2023-04-21T09:10:49.153Z,18.70
2023-04-21T09:13:18.842Z,18.70
2023-04-21T09:15:52.445Z,18.70
2023-04-21T09:18:23.767Z,18.70
2023-04-21T09:21:07.994Z,18.90
2023-04-21T09:23:50.467Z,18.90
2023-04-21T09:26:22.714Z,19.00
2023-04-21T09:28:52.640Z,19.10
2023-04-21T09:31:24.882Z,19.10
2023-04-21T09:34:00.301Z,19.20
2023-04-21T09:36:31.990Z,19.20
2023-04-21T09:41:34.910Z,19.30
2023-04-21T09:44:04.473Z,19.40
2023-04-21T09:46:35.856Z,19.40
2023-04-21T09:49:04.429Z,19.50
2023-04-21T09:51:56.239Z,19.50
2023-04-21T09:56:56.481Z,19.40
2023-04-21T09:59:30.886Z,19.40
2023-04-21T10:02:01.465Z,19.50
2023-04-21T10:04:32.589Z,19.50
2023-04-21T10:07:01.279Z,19.50
2023-04-21T10:09:36.994Z,19.50
2023-04-21T10:12:07.805Z,19.50
2023-04-21T10:14:36.568Z,19.50
2023-04-21T10:17:10.146Z,19.50
2023-04-21T10:19:47.954Z,19.50
2023-04-21T10:22:26.435Z,19.60
2023-04-21T10:24:57.236Z,19.60
2023-04-21T10:27:43.123Z,19.60
2023-04-21T10:30:28.971Z,19.60
2023-04-21T10:33:06.450Z,19.60
2023-04-21T10:36:03.200Z,19.70
2023-04-21T10:38:42.848Z,19.70
2023-04-21T10:41:36.114Z,19.80
2023-04-21T10:44:14.012Z,19.80
2023-04-21T10:46:47.199Z,19.80
2023-04-21T10:49:30.859Z,19.80
2023-04-21T10:51:58.312Z,19.90
2023-04-21T10:54:36.815Z,19.90
2023-04-21T10:57:09.043Z,20.00
2023-04-21T10:59:36.694Z,20.00
2023-04-21T11:02:11.789Z,20.00
2023-04-21T11:04:45.080Z,20.00
2023-04-21T11:07:16.708Z,20.00
2023-04-21T11:09:46.481Z,20.00
2023-04-21T11:12:20.062Z,20.00
2023-04-21T11:14:48.235Z,20.10
2023-04-21T11:17:21.312Z,20.20
2023-04-21T11:19:54.762Z,20.10
2023-04-21T11:22:25.199Z,20.20
2023-04-21T11:24:57.556Z,20.20
2023-04-21T11:27:29.521Z,20.30
2023-04-21T11:29:57.657Z,20.30
2023-04-21T11:32:25.447Z,20.30
2023-04-21T11:34:52.749Z,20.40
2023-04-21T11:37:27.908Z,20.40
2023-04-21T11:40:02.883Z,20.40
2023-04-21T11:42:30.567Z,20.50
2023-04-21T11:44:58.057Z,20.40
2023-04-21T11:47:27.268Z,20.50
2023-04-21T11:50:01.000Z,20.40
2023-04-21T11:52:39.317Z,20.40
2023-04-21T11:55:18.767Z,20.30
2023-04-21T11:57:45.946Z,20.30
2023-04-21T12:00:16.887Z,20.30
2023-04-21T12:02:44.385Z,20.40
2023-04-21T12:05:13.608Z,20.40
2023-04-21T12:07:46.177Z,20.30
2023-04-21T12:10:16.812Z,20.30
2023-04-21T12:12:44.955Z,20.40
2023-04-21T12:15:19.635Z,20.40
2023-04-21T12:17:53.479Z,20.50
2023-04-21T12:20:24.395Z,20.40
2023-04-21T12:22:52.536Z,20.50
2023-04-21T12:25:20.029Z,20.60
2023-04-21T12:27:54.201Z,20.90
2023-04-21T12:30:21.795Z,21.30
2023-04-21T12:32:49.230Z,21.40
2023-04-21T12:35:16.416Z,21.50
2023-04-21T12:37:44.744Z,21.50
2023-04-21T12:40:11.970Z,21.50
2023-04-21T12:42:39.149Z,21.50
2023-04-21T12:45:06.988Z,21.50
2023-04-21T12:47:35.152Z,21.50
2023-04-21T12:50:02.444Z,21.50
2023-04-21T12:52:29.510Z,21.50
2023-04-21T12:54:56.544Z,21.40
2023-04-21T12:57:23.641Z,21.20
2023-04-21T12:59:50.940Z,21.20
2023-04-21T13:02:18.134Z,21.10
2023-04-21T13:04:45.438Z,21.10
2023-04-21T13:07:12.660Z,21.00
2023-04-21T13:09:39.704Z,21.00
2023-04-21T13:12:07.010Z,20.90
2023-04-21T13:14:34.100Z,20.90
2023-04-21T13:17:01.276Z,20.80
2023-04-21T13:19:29.701Z,20.80
2023-04-21T13:21:57.062Z,20.80
2023-04-21T13:24:25.938Z,20.70
2023-04-21T13:26:53.133Z,20.70
2023-04-21T13:29:20.305Z,20.60
2023-04-21T13:31:47.473Z,20.60
2023-04-21T13:34:14.879Z,20.50
2023-04-21T13:36:42.313Z,20.40
2023-04-21T13:39:10.318Z,20.40
2023-04-21T13:41:37.480Z,20.30
2023-04-21T13:44:04.607Z,20.30
2023-04-21T13:46:31.911Z,20.30
2023-04-21T13:48:59.610Z,20.30
2023-04-21T13:51:26.792Z,20.20
2023-04-21T13:53:53.950Z,20.20
2023-04-21T13:56:21.086Z,20.20
2023-04-21T13:58:48.541Z,20.20
2023-04-21T14:01:16.187Z,20.20
2023-04-21T14:03:43.621Z,20.20
2023-04-21T14:06:11.006Z,20.30
2023-04-21T14:08:38.308Z,20.20
2023-04-21T14:11:06.526Z,20.20
2023-04-21T14:13:37.841Z,20.20
2023-04-21T14:16:09.631Z,20.20
2023-04-21T14:18:38.433Z,20.20
2023-04-21T14:21:05.748Z,20.20
2023-04-21T14:23:32.859Z,20.20
2023-04-21T14:26:00.043Z,20.20
2023-04-21T14:28:27.135Z,20.20
2023-04-21T14:30:54.263Z,20.10
2023-04-21T14:33:21.374Z,20.10
2023-04-21T14:35:48.706Z,20.10
2023-04-21T14:38:16.173Z,20.10
2023-04-21T14:40:43.316Z,20.10
2023-04-21T14:43:11.671Z,20.10
2023-04-21T14:45:41.194Z,20.10
2023-04-21T14:48:08.600Z,20.10
2023-04-21T14:50:35.834Z,20.00
2023-04-21T14:53:02.908Z,20.00
2023-04-21T14:55:29.992Z,20.00
2023-04-21T14:57:57.035Z,20.00
2023-04-21T15:00:24.648Z,20.00
2023-04-21T15:02:52.937Z,20.00
2023-04-21T15:05:20.282Z,20.00
2023-04-21T15:07:47.422Z,19.90
2023-04-21T15:10:14.586Z,19.90
2023-04-21T15:12:41.957Z,19.90
2023-04-21T15:15:09.316Z,19.90
2023-04-21T15:17:36.636Z,19.90
2023-04-21T15:20:04.053Z,19.90
2023-04-21T15:22:31.325Z,19.90
2023-04-21T15:24:58.682Z,19.90
2023-04-21T15:27:25.750Z,19.90
2023-04-21T15:29:52.927Z,19.90
2023-04-21T15:32:20.579Z,20.00
2023-04-21T15:34:47.675Z,20.00
2023-04-21T15:37:17.146Z,20.00
2023-04-21T15:39:44.266Z,19.90
2023-04-21T15:42:11.525Z,20.00
2023-04-21T15:44:39.645Z,20.00
2023-04-21T15:47:07.042Z,20.00
2023-04-21T15:49:34.329Z,20.00
2023-04-21T15:52:03.964Z,20.00
2023-04-21T15:54:34.236Z,20.00
2023-04-21T15:57:02.251Z,20.10
2023-04-21T15:59:29.445Z,20.10
2023-04-21T16:01:59.607Z,20.20
2023-04-21T16:04:27.006Z,20.30
2023-04-21T16:06:54.281Z,20.50
2023-04-21T16:09:21.730Z,21.20
2023-04-21T16:11:51.981Z,22.00
2023-04-21T16:14:19.157Z,22.70
2023-04-21T16:16:46.504Z,23.20
2023-04-21T16:19:13.801Z,23.20
2023-04-21T16:21:42.382Z,22.70
2023-04-21T16:24:09.823Z,22.10
2023-04-21T16:26:37.061Z,21.60
2023-04-21T16:29:04.340Z,21.20
2023-04-21T16:31:35.048Z,20.90
2023-04-21T16:34:02.218Z,20.60
2023-04-21T16:36:31.222Z,20.40
2023-04-21T16:38:58.823Z,20.20
2023-04-21T16:41:25.967Z,20.10
2023-04-21T16:43:53.176Z,19.90
2023-04-21T16:46:20.351Z,19.80
2023-04-21T16:48:47.701Z,19.60
2023-04-21T16:51:14.884Z,19.50
2023-04-21T16:53:42.601Z,19.40
2023-04-21T16:56:10.189Z,19.30
2023-04-21T16:58:37.785Z,19.20
2023-04-21T17:01:07.637Z,19.10
2023-04-21T17:03:35.257Z,19.00
2023-04-21T17:06:04.957Z,18.90
2023-04-21T17:08:32.217Z,18.90
2023-04-21T17:11:00.272Z,18.80
2023-04-21T17:13:27.531Z,18.80
2023-04-21T17:15:55.061Z,18.70
2023-04-21T17:18:22.340Z,18.60
2023-04-21T17:20:49.612Z,18.60
2023-04-21T17:23:17.059Z,18.50
2023-04-21T17:25:44.341Z,18.40
2023-04-21T17:28:11.882Z,18.40
2023-04-21T17:30:39.065Z,18.30
2023-04-21T17:33:16.147Z,18.20
2023-04-21T17:35:59.937Z,18.20
2023-04-21T17:38:30.462Z,18.00
2023-04-21T17:40:58.099Z,18.00
2023-04-21T17:43:25.496Z,17.90
2023-04-21T17:45:52.798Z,17.80
2023-04-21T17:48:21.286Z,17.70
2023-04-21T17:50:48.433Z,17.60
2023-04-21T17:53:15.668Z,17.50
2023-04-21T17:55:43.100Z,17.40
2023-04-21T17:58:12.531Z,17.30
2023-04-21T18:00:40.027Z,17.20
2023-04-21T18:03:07.643Z,17.00
2023-04-21T18:05:35.071Z,16.90
2023-04-21T18:08:03.124Z,16.90
2023-04-21T18:10:30.601Z,16.80
2023-04-21T18:12:58.362Z,16.70
2023-04-21T18:15:25.826Z,16.60
2023-04-21T18:17:53.388Z,16.50
2023-04-21T18:20:20.992Z,16.40
2023-04-21T18:22:49.645Z,16.30
2023-04-21T18:25:27.271Z,16.30
2023-04-21T18:28:05.500Z,16.20
2023-04-21T18:30:33.094Z,16.10
2023-04-21T18:33:00.755Z,16.00
2023-04-21T18:35:28.011Z,15.90
2023-04-21T18:37:55.294Z,15.90
2023-04-21T18:40:22.664Z,15.80
2023-04-21T18:42:50.279Z,15.70
2023-04-21T18:45:18.312Z,15.60
2023-04-21T18:47:48.271Z,15.60
2023-04-21T18:50:15.617Z,15.60
2023-04-21T18:52:43.422Z,15.50
2023-04-21T18:55:10.690Z,15.50
2023-04-21T18:57:37.972Z,15.40
2023-04-21T19:00:07.348Z,15.40
2023-04-21T19:02:34.768Z,15.30
2023-04-21T19:05:02.419Z,15.20
2023-04-21T19:07:29.617Z,15.20
2023-04-21T19:09:56.826Z,15.10
2023-04-21T19:12:24.151Z,15.10
2023-04-21T19:14:51.928Z,15.00
2023-04-21T19:17:19.413Z,15.00
2023-04-21T19:19:46.748Z,14.90
2023-04-21T19:22:14.006Z,14.90
2023-04-21T19:24:41.264Z,14.80
2023-04-21T19:27:08.707Z,14.80
2023-04-21T19:29:37.073Z,14.80
2023-04-21T19:32:04.565Z,14.80
2023-04-21T19:34:32.202Z,14.70
2023-04-21T19:37:00.950Z,14.60
2023-04-21T19:39:28.798Z,14.60
2023-04-21T19:41:57.527Z,14.50
2023-04-21T19:44:24.807Z,14.50
2023-04-21T19:46:52.406Z,14.50
2023-04-21T19:49:19.706Z,14.40
2023-04-21T19:51:47.020Z,14.40
2023-04-21T19:54:14.316Z,14.40
2023-04-21T19:56:41.664Z,14.30
2023-04-21T19:59:08.894Z,14.30
2023-04-21T20:01:36.607Z,14.20
2023-04-21T20:04:04.661Z,14.20
2023-04-21T20:06:32.475Z,14.10
2023-04-21T20:08:59.723Z,14.10
2023-04-21T20:11:28.949Z,14.10
2023-04-21T20:13:56.631Z,14.00
2023-04-21T20:16:26.306Z,14.00
2023-04-21T20:18:55.856Z,14.00
2023-04-21T20:21:23.195Z,14.00
2023-04-21T20:23:50.445Z,13.90
2023-04-21T20:26:17.756Z,13.90
2023-04-21T20:28:44.956Z,13.90
2023-04-21T20:31:12.204Z,13.80
2023-04-21T20:33:39.513Z,13.80
2023-04-21T20:36:09.719Z,13.80
2023-04-21T20:38:38.420Z,13.80
2023-04-21T20:41:05.664Z,13.70
2023-04-21T20:43:33.372Z,13.70
2023-04-21T20:46:01.777Z,13.60
2023-04-21T20:48:29.120Z,13.60
2023-04-21T20:50:56.472Z,13.60
2023-04-21T20:53:23.860Z,13.60
2023-04-21T20:55:51.199Z,13.60
2023-04-21T20:58:18.491Z,13.50
2023-04-21T21:00:45.796Z,13.50
2023-04-21T21:03:13.939Z,13.40
2023-04-21T21:05:41.546Z,13.40
2023-04-21T21:08:09.260Z,13.40
2023-04-21T21:10:36.504Z,13.40
2023-04-21T21:13:04.534Z,13.30
2023-04-21T21:15:31.853Z,13.30
2023-04-21T21:17:59.164Z,13.30
2023-04-21T21:20:26.728Z,13.20
2023-04-21T21:22:54.122Z,13.20
2023-04-21T21:25:21.617Z,13.20
2023-04-21T21:27:48.958Z,13.20
2023-04-21T21:30:16.410Z,13.10
2023-04-21T21:32:43.761Z,13.10
2023-04-21T21:35:12.078Z,13.10
2023-04-21T21:37:39.787Z,13.10
2023-04-21T21:40:08.313Z,13.00
2023-04-21T21:42:35.455Z,13.00
2023-04-21T21:45:02.645Z,13.00
2023-04-21T21:47:29.910Z,13.00
2023-04-21T21:49:58.918Z,12.90
2023-04-21T21:52:28.628Z,12.90
2023-04-21T21:54:56.964Z,12.90
2023-04-21T21:57:24.804Z,12.90
2023-04-21T21:59:52.695Z,12.80
2023-04-21T22:02:19.969Z,12.90
2023-04-21T22:04:47.702Z,12.90
2023-04-21T22:07:14.988Z,12.80
2023-04-21T22:09:42.224Z,12.80
2023-04-21T22:12:09.641Z,12.80
2023-04-21T22:14:36.894Z,12.80
2023-04-21T22:17:04.423Z,12.70
2023-04-21T22:19:31.740Z,12.70
2023-04-21T22:21:59.017Z,12.70
2023-04-21T22:24:26.709Z,12.70
2023-04-21T22:26:53.901Z,12.60
2023-04-21T22:29:21.268Z,12.60
2023-04-21T22:31:48.662Z,12.60
2023-04-21T22:34:16.835Z,12.60
2023-04-21T22:36:44.139Z,12.50
2023-04-21T22:39:11.790Z,12.60
2023-04-21T22:41:39.369Z,12.50
2023-04-21T22:44:06.630Z,12.50
2023-04-21T22:46:34.072Z,12.50
2023-04-21T22:49:03.319Z,12.50
2023-04-21T22:51:32.591Z,12.40
2023-04-21T22:54:00.669Z,12.40
2023-04-21T22:56:30.323Z,12.40
2023-04-21T22:58:57.890Z,12.40
2023-04-21T23:01:25.260Z,12.30
2023-04-21T23:03:52.746Z,12.30
2023-04-21T23:06:20.158Z,12.30
2023-04-21T23:08:47.491Z,12.30
2023-04-21T23:11:14.736Z,12.30
2023-04-21T23:13:42.134Z,12.30
2023-04-21T23:16:09.471Z,12.30
2023-04-21T23:18:36.881Z,12.30
2023-04-21T23:21:04.277Z,12.30
2023-04-21T23:23:31.696Z,12.30
2023-04-21T23:25:59.390Z,12.20
2023-04-21T23:28:26.618Z,12.20
2023-04-21T23:30:53.988Z,12.20
2023-04-21T23:33:21.346Z,12.20
2023-04-21T23:35:48.563Z,12.10
2023-04-21T23:38:15.866Z,12.10
2023-04-21T23:40:43.122Z,12.10
2023-04-21T23:43:10.676Z,12.10
2023-04-21T23:45:37.940Z,12.10
2023-04-21T23:48:05.251Z,12.00
2023-04-21T23:50:32.903Z,12.00
2023-04-21T23:53:00.217Z,12.00
2023-04-21T23:55:27.553Z,12.00
2023-04-21T23:57:54.747Z,12.00
